createdAt,value
2017-11-10T00:00:45.602Z,98381.45
2017-11-10T00:01:49.335Z,98418.67
2017-11-10T00:02:53.134Z,98419.05
2017-11-10T00:03:56.988Z,98422.55
2017-11-10T00:05:00.888Z,98398.77
2017-11-10T00:06:04.692Z,98412.48
2017-11-10T00:07:08.852Z,98403.31
2017-11-10T00:08:13.779Z,98416.20
2017-11-10T00:16:06.296Z,98409.30
2017-11-10T00:17:10.198Z,98424.34
2017-11-10T00:18:14.224Z,98420.89
2017-11-10T00:19:18.170Z,98411.56
2017-11-10T00:20:22.119Z,98429.72
2017-11-10T00:21:26.173Z,98428.66
2017-11-10T00:22:30.021Z,98391.29
2017-11-10T00:23:33.833Z,98415.97
2017-11-10T00:24:37.642Z,98419.05
2017-11-10T00:25:41.425Z,98415.43
2017-11-10T00:26:45.252Z,98358.02
2017-11-10T00:27:49.033Z,98410.50
2017-11-10T00:28:52.817Z,98416.53
2017-11-10T00:29:56.635Z,98417.05
2017-11-10T00:31:00.363Z,98410.13
2017-11-10T00:32:04.204Z,98425.19
2017-11-10T00:33:08.716Z,98418.35
2017-11-10T00:34:12.582Z,98421.53
2017-11-10T00:35:16.364Z,98421.72
2017-11-10T00:36:20.216Z,98424.83
2017-11-10T00:37:23.923Z,98423.45
2017-11-10T00:38:27.616Z,98398.81
2017-11-10T00:39:31.417Z,98411.21
2017-11-10T00:40:35.253Z,98394.15
2017-11-10T00:41:39.033Z,98406.12
2017-11-10T00:42:42.882Z,98413.31
2017-11-10T00:43:46.698Z,98411.65
2017-11-10T00:44:50.794Z,98408.72
2017-11-10T00:45:54.650Z,98410.43
2017-11-10T00:46:58.473Z,98398.02
2017-11-10T00:48:02.168Z,98411.31
2017-11-10T00:49:05.898Z,98408.22
2017-11-10T00:50:09.742Z,98408.43
2017-11-10T00:51:13.840Z,98401.30
2017-11-10T00:52:17.666Z,98404.01
2017-11-10T00:53:21.482Z,98388.72
2017-11-10T00:54:25.315Z,98396.81
2017-11-10T00:55:29.032Z,98406.27
2017-11-10T00:56:32.773Z,98393.02
2017-11-10T00:57:36.732Z,98397.00
2017-11-10T00:58:40.390Z,98405.05
2017-11-10T00:59:44.065Z,98414.38
2017-11-10T01:00:49.474Z,98398.42
2017-11-10T01:01:58.058Z,98406.73
2017-11-10T01:03:02.193Z,98415.14
2017-11-10T01:04:06.006Z,98412.87
2017-11-10T01:05:09.814Z,98403.73
2017-11-10T01:06:13.691Z,98406.40
2017-11-10T01:07:17.435Z,98384.59
2017-11-10T01:08:21.134Z,98391.56
2017-11-10T01:09:25.185Z,98414.56
2017-11-10T01:10:28.788Z,98376.71
2017-11-10T01:11:32.408Z,98380.50
2017-11-10T01:12:36.215Z,98370.89
2017-11-10T01:13:40.809Z,98372.50
2017-11-10T01:14:44.444Z,98388.43
2017-11-10T01:15:48.360Z,98395.69
2017-11-10T01:16:52.185Z,98363.84
2017-11-10T01:17:55.854Z,98386.58
2017-11-10T01:18:59.528Z,98394.88
2017-11-10T01:20:03.133Z,98386.16
2017-11-10T01:21:06.746Z,98390.31
2017-11-10T01:22:21.140Z,98392.63
2017-11-10T01:23:24.858Z,98398.55
2017-11-10T01:24:28.576Z,98397.88
2017-11-10T01:25:32.275Z,98412.33
2017-11-10T01:26:35.964Z,98382.95
2017-11-10T01:27:39.614Z,98390.80
2017-11-10T01:28:43.558Z,98396.12
2017-11-10T01:29:47.232Z,98399.08
2017-11-10T01:30:51.170Z,98386.05
2017-11-10T01:31:55.225Z,98371.83
2017-11-10T01:32:58.996Z,98400.23
2017-11-10T01:34:02.796Z,98403.48
2017-11-10T01:35:06.902Z,98387.73
2017-11-10T01:36:10.674Z,98374.61
2017-11-10T01:37:14.430Z,98370.06
2017-11-10T01:38:18.113Z,98378.06
2017-11-10T01:39:21.866Z,98371.48
2017-11-10T01:40:25.726Z,98348.05
2017-11-10T01:41:29.924Z,98353.02
2017-11-10T01:42:33.752Z,98337.31
2017-11-10T01:43:37.386Z,98334.41
2017-11-10T01:44:41.152Z,98331.50
2017-11-10T01:45:44.793Z,98285.95
2017-11-10T01:46:48.546Z,98240.68
2017-11-10T01:48:23.214Z,98297.92
2017-11-10T01:49:28.919Z,98298.91
2017-11-10T01:50:32.728Z,98297.33
2017-11-10T01:51:36.512Z,98285.32
2017-11-10T01:52:40.371Z,98301.26
2017-11-10T01:53:44.214Z,98284.02
2017-11-10T01:54:48.355Z,98307.84
2017-11-10T01:55:52.165Z,98306.73
2017-11-10T01:56:56.009Z,98304.00
2017-11-10T01:57:59.844Z,98306.84
2017-11-10T01:59:03.614Z,98249.91
2017-11-10T02:00:07.577Z,98303.17
2017-11-10T02:01:11.650Z,98287.38
2017-11-10T02:02:15.322Z,98297.55
2017-11-10T02:03:20.354Z,98290.92
2017-11-10T02:04:24.050Z,98293.87
2017-11-10T02:05:27.747Z,98280.82
2017-11-10T02:06:31.471Z,98182.39
2017-11-10T02:07:35.586Z,98297.95
2017-11-10T02:08:39.280Z,98303.11
2017-11-10T02:09:43.005Z,98283.56
2017-11-10T02:10:46.608Z,98291.11
2017-11-10T02:11:50.236Z,98291.34
2017-11-10T02:12:54.012Z,98279.72
2017-11-10T02:13:57.993Z,98287.44
2017-11-10T02:15:01.627Z,98274.16
2017-11-10T02:16:05.347Z,98303.80
2017-11-10T02:17:09.064Z,98312.64
2017-11-10T02:18:12.688Z,98315.31
2017-11-10T02:19:16.292Z,98313.27
2017-11-10T02:20:20.202Z,98324.11
2017-11-10T02:21:23.879Z,98320.41
2017-11-10T02:22:27.468Z,98278.59
2017-11-10T02:23:31.172Z,98327.94
2017-11-10T02:24:34.804Z,98298.63
2017-11-10T02:25:39.224Z,98306.00
2017-11-10T02:26:42.827Z,98299.52
2017-11-10T02:27:46.424Z,98299.27
2017-11-10T02:28:50.068Z,98298.09
2017-11-10T02:29:53.685Z,98305.75
2017-11-10T02:30:57.291Z,98302.79
2017-11-10T02:32:01.333Z,98290.73
2017-11-10T02:33:04.977Z,98297.98
2017-11-10T02:34:08.677Z,98286.50
2017-11-10T02:35:12.288Z,98281.69
2017-11-10T02:36:16.018Z,98252.80
2017-11-10T02:37:19.747Z,98266.69
2017-11-10T02:38:23.669Z,98275.23
2017-11-10T02:39:29.232Z,98266.53
2017-11-10T02:40:32.932Z,98280.45
2017-11-10T02:41:36.529Z,98280.58
2017-11-10T02:42:40.219Z,98278.21
2017-11-10T02:43:43.779Z,98277.87
2017-11-10T02:44:47.689Z,98248.31
2017-11-10T02:45:51.269Z,98274.94
2017-11-10T02:46:55.069Z,98280.97
2017-11-10T02:47:58.675Z,98246.41
2017-11-10T02:49:02.282Z,98264.27
2017-11-10T02:50:07.820Z,98266.23
2017-11-10T02:51:11.722Z,98259.34
2017-11-10T02:52:15.411Z,98258.94
2017-11-10T02:53:18.989Z,98257.62
2017-11-10T02:54:22.616Z,98284.08
2017-11-10T02:55:26.206Z,98249.33
2017-11-10T02:56:29.900Z,98249.67
2017-11-10T02:57:33.775Z,98251.80
2017-11-10T02:58:37.413Z,98231.48
2017-11-10T02:59:41.058Z,98240.03
2017-11-10T03:00:44.740Z,98238.87
2017-11-10T03:01:48.474Z,98247.86
2017-11-10T03:02:52.202Z,98234.33
2017-11-10T03:03:56.202Z,98229.30
2017-11-10T03:04:59.929Z,98225.89
2017-11-10T03:06:04.113Z,98228.05
2017-11-10T03:07:07.960Z,98202.56
2017-11-10T03:08:11.729Z,98232.05
2017-11-10T03:09:15.450Z,98234.17
2017-11-10T03:10:19.412Z,98201.75
2017-11-10T03:11:23.096Z,98232.70
2017-11-10T03:12:26.735Z,98230.19
2017-11-10T03:13:30.328Z,98188.07
2017-11-10T03:14:34.031Z,98231.27
2017-11-10T03:15:37.681Z,98229.55
2017-11-10T03:16:41.601Z,98226.61
2017-11-10T03:17:45.205Z,98228.08
2017-11-10T03:18:49.929Z,98222.88
2017-11-10T03:19:53.568Z,98222.53
2017-11-10T03:20:57.378Z,98217.63
2017-11-10T03:22:01.108Z,98219.27
2017-11-10T03:23:05.132Z,98220.19
2017-11-10T03:24:08.911Z,98196.24
2017-11-10T03:25:12.694Z,98221.28
2017-11-10T03:26:16.442Z,98221.05
2017-11-10T03:27:20.216Z,98213.97
2017-11-10T03:28:24.967Z,98216.31
2017-11-10T03:29:29.027Z,98217.89
2017-11-10T03:30:32.832Z,98223.11
2017-11-10T03:31:36.593Z,98192.56
2017-11-10T03:32:40.329Z,98212.78
2017-11-10T03:33:44.082Z,98197.47
2017-11-10T03:34:47.769Z,98205.77
2017-11-10T03:35:51.727Z,98210.32
2017-11-10T03:36:55.534Z,98204.86
2017-11-10T03:37:59.397Z,98203.33
2017-11-10T03:39:03.253Z,98202.88
2017-11-10T03:40:07.067Z,98207.12
2017-11-10T03:41:10.834Z,98182.03
2017-11-10T03:42:14.582Z,98197.98
2017-11-10T03:43:18.268Z,98193.14
2017-11-10T03:44:22.335Z,98185.92
2017-11-10T03:45:26.016Z,98187.17
2017-11-10T03:46:29.879Z,98180.42
2017-11-10T03:47:33.812Z,98193.48
2017-11-10T03:48:37.392Z,98190.89
2017-11-10T03:49:41.037Z,98191.00
2017-11-10T03:50:44.751Z,98109.80
2017-11-10T03:51:48.463Z,98198.59
2017-11-10T03:52:52.200Z,98171.27
2017-11-10T03:53:56.193Z,98178.02
2017-11-10T03:54:59.888Z,98179.59
2017-11-10T03:56:03.541Z,98181.86
2017-11-10T03:57:07.197Z,98169.64
2017-11-10T03:58:10.820Z,98176.51
2017-11-10T03:59:14.518Z,98176.43
2017-11-10T04:00:20.338Z,98176.09
2017-11-10T04:01:24.269Z,98171.22
2017-11-10T04:02:28.001Z,98163.17
2017-11-10T04:03:31.808Z,98162.55
2017-11-10T04:04:35.554Z,98144.91
2017-11-10T04:05:39.267Z,98159.47
2017-11-10T04:06:43.457Z,98157.11
2017-11-10T04:07:47.070Z,98157.84
2017-11-10T04:08:50.673Z,98164.86
2017-11-10T04:09:54.336Z,98157.41
2017-11-10T04:10:58.008Z,98154.83
2017-11-10T04:12:01.697Z,98152.64
2017-11-10T04:13:05.657Z,98137.80
2017-11-10T04:14:09.327Z,98148.84
2017-11-10T04:15:13.039Z,98153.70
2017-11-10T04:16:16.650Z,98148.87
2017-11-10T04:17:20.279Z,98154.69
2017-11-10T04:18:23.958Z,98157.21
2017-11-10T04:19:27.874Z,98157.27
2017-11-10T04:20:31.606Z,98140.27
2017-11-10T04:21:35.246Z,98148.78
2017-11-10T04:22:38.897Z,98141.41
2017-11-10T04:23:42.567Z,98151.58
2017-11-10T04:24:46.210Z,98143.70
2017-11-10T04:25:49.896Z,98152.52
2017-11-10T04:26:53.550Z,98156.33
2017-11-10T04:27:57.263Z,98159.09
2017-11-10T04:29:04.176Z,98127.98
2017-11-10T04:30:07.850Z,98164.30
2017-11-10T04:31:11.809Z,98168.61
2017-11-10T04:32:15.497Z,98170.52
2017-11-10T04:33:19.494Z,98144.48
2017-11-10T04:34:23.211Z,98154.12
2017-11-10T04:35:26.932Z,98159.70
2017-11-10T04:36:30.848Z,98151.42
2017-11-10T04:37:34.832Z,98143.91
2017-11-10T04:38:38.558Z,98170.08
2017-11-10T04:39:42.182Z,98132.05
2017-11-10T04:40:45.889Z,98143.11
2017-11-10T04:41:49.626Z,98147.99
2017-11-10T04:42:53.355Z,98140.78
2017-11-10T04:43:57.362Z,98154.08
2017-11-10T04:45:01.219Z,98123.27
2017-11-10T04:46:04.965Z,98143.27
2017-11-10T04:47:08.679Z,98153.36
2017-11-10T04:48:12.403Z,98118.14
2017-11-10T04:49:16.105Z,98150.79
2017-11-10T04:50:20.288Z,98153.30
2017-11-10T04:51:24.134Z,98150.27
2017-11-10T04:52:27.837Z,98139.42
2017-11-10T04:53:31.575Z,98150.33
2017-11-10T04:54:35.854Z,98149.98
2017-11-10T04:55:39.626Z,98128.65
2017-11-10T04:56:43.746Z,98138.47
2017-11-10T04:57:47.705Z,98053.74
2017-11-10T04:58:51.468Z,98127.27
2017-11-10T04:59:55.221Z,98136.50
2017-11-10T05:00:59.002Z,98123.18
2017-11-10T05:02:02.860Z,98132.41
2017-11-10T05:03:06.979Z,98137.62
2017-11-10T05:04:10.675Z,98132.55
2017-11-10T05:05:14.370Z,98127.95
2017-11-10T05:06:18.150Z,98126.00
2017-11-10T05:07:21.928Z,98132.38
2017-11-10T05:08:26.714Z,98102.18
2017-11-10T05:09:30.946Z,98115.70
2017-11-10T05:10:34.677Z,98087.95
2017-11-10T05:11:38.312Z,98116.77
2017-11-10T05:12:42.077Z,98109.50
2017-11-10T05:13:45.769Z,98106.17
2017-11-10T05:14:49.600Z,98108.36
2017-11-10T05:15:53.253Z,98100.66
2017-11-10T05:16:56.969Z,98088.34
2017-11-10T05:18:00.671Z,98110.27
2017-11-10T05:19:04.359Z,98101.97
2017-11-10T05:20:08.022Z,98104.02
2017-11-10T05:21:11.720Z,98105.63
2017-11-10T05:22:16.899Z,98096.78
2017-11-10T05:23:22.073Z,98061.12
2017-11-10T05:24:25.797Z,98081.95
2017-11-10T05:25:29.499Z,98081.95
2017-11-10T05:26:33.138Z,98082.84
2017-11-10T05:27:36.972Z,98096.41
2017-11-10T05:28:40.908Z,98094.63
2017-11-10T05:29:44.675Z,98109.06
2017-11-10T05:30:48.601Z,98086.58
2017-11-10T05:31:52.401Z,98091.80
2017-11-10T05:32:56.611Z,98077.01
2017-11-10T05:34:09.017Z,98090.37
2017-11-10T05:35:12.930Z,98058.23
2017-11-10T05:36:17.752Z,98083.88
2017-11-10T05:37:21.534Z,98077.94
2017-11-10T05:38:26.011Z,98063.23
2017-11-10T05:39:29.858Z,98078.92
2017-11-10T05:40:33.937Z,98064.48
2017-11-10T05:41:37.869Z,98076.09
2017-11-10T05:42:42.804Z,98076.13
2017-11-10T05:43:47.087Z,98087.56
2017-11-10T05:44:51.030Z,98063.91
2017-11-10T05:45:54.954Z,98076.02
2017-11-10T05:46:59.145Z,98066.59
2017-11-10T05:48:02.903Z,98030.39
2017-11-10T05:49:06.599Z,98049.18
2017-11-10T05:50:15.591Z,98060.30
2017-11-10T05:51:21.104Z,98065.42
2017-11-10T05:52:25.677Z,98063.33
2017-11-10T05:53:33.509Z,98055.60
2017-11-10T05:54:37.419Z,98073.30
2017-11-10T05:55:41.965Z,98051.61
2017-11-10T05:56:46.308Z,98041.38
2017-11-10T05:57:50.363Z,98037.01
2017-11-10T05:58:54.534Z,98049.70
2017-11-10T06:00:00.097Z,98047.94
2017-11-10T06:01:05.240Z,98058.42
2017-11-10T06:02:09.339Z,98035.48
2017-11-10T06:03:13.281Z,98086.80
2017-11-10T06:04:17.670Z,98050.78
2017-11-10T06:05:22.805Z,98052.55
2017-11-10T06:06:31.623Z,98017.65
2017-11-10T06:07:37.946Z,98050.41
2017-11-10T06:08:41.781Z,98032.72
2017-11-10T06:09:45.671Z,98042.00
2017-11-10T06:10:49.535Z,98051.91
2017-11-10T06:11:53.347Z,98037.16
2017-11-10T06:12:57.169Z,98055.47
2017-11-10T06:14:00.933Z,98030.64
2017-11-10T06:15:04.644Z,98057.56
2017-11-10T06:16:08.335Z,98038.52
2017-11-10T06:17:12.110Z,98011.32
2017-11-10T06:18:16.296Z,98044.52
2017-11-10T06:19:20.079Z,98042.81
2017-11-10T06:20:23.827Z,98034.59
2017-11-10T06:21:27.598Z,98061.33
2017-11-10T06:22:31.495Z,98041.91
2017-11-10T06:23:35.384Z,98020.00
2017-11-10T06:24:39.287Z,98013.11
2017-11-10T06:25:43.116Z,98028.31
2017-11-10T06:26:47.060Z,98031.13
2017-11-10T06:27:50.979Z,98045.50
2017-11-10T06:28:57.113Z,98032.50
2017-11-10T06:30:02.984Z,98045.59
2017-11-10T06:31:07.462Z,98048.66
2017-11-10T06:32:12.665Z,98046.23
2017-11-10T06:33:17.986Z,98039.33
2017-11-10T06:34:22.899Z,98042.54
2017-11-10T06:35:26.777Z,98047.96
2017-11-10T06:36:32.090Z,98049.89
2017-11-10T06:37:36.185Z,97991.08
2017-11-10T06:38:40.076Z,98015.39
2017-11-10T06:39:43.915Z,98028.47
2017-11-10T06:40:47.743Z,98017.30
2017-11-10T06:41:51.565Z,98032.06
2017-11-10T06:42:55.621Z,98027.22
2017-11-10T06:43:59.433Z,98023.41
2017-11-10T06:45:03.126Z,98009.56
2017-11-10T06:46:07.500Z,98028.55
2017-11-10T06:47:11.208Z,98021.95
2017-11-10T06:48:15.054Z,98015.77
2017-11-10T06:49:19.136Z,98023.56
2017-11-10T06:50:23.334Z,97994.47
2017-11-10T06:51:27.198Z,97989.82
2017-11-10T06:52:31.005Z,98000.38
2017-11-10T06:53:34.853Z,97995.35
2017-11-10T06:54:38.673Z,97996.21
2017-11-10T06:55:42.797Z,98008.45
2017-11-10T06:56:46.776Z,98010.11
2017-11-10T06:57:50.615Z,97989.80
2017-11-10T06:58:54.398Z,97997.02
2017-11-10T06:59:58.228Z,97988.31
2017-11-10T07:01:02.016Z,97983.88
2017-11-10T07:02:06.329Z,97993.80
2017-11-10T07:03:10.247Z,97999.03
2017-11-10T07:04:14.216Z,97985.96
2017-11-10T07:05:18.239Z,97953.88
2017-11-10T07:06:22.291Z,97999.53
2017-11-10T07:07:26.249Z,97987.76
2017-11-10T07:08:30.449Z,98000.36
2017-11-10T07:09:34.398Z,97973.64
2017-11-10T07:10:38.298Z,97996.74
2017-11-10T07:11:42.144Z,97997.05
2017-11-10T07:12:45.976Z,97904.23
2017-11-10T07:13:49.715Z,97992.81
2017-11-10T07:14:54.088Z,97942.55
2017-11-10T07:15:58.471Z,97961.36
2017-11-10T07:17:02.273Z,97968.88
2017-11-10T07:18:06.010Z,97945.86
2017-11-10T07:19:09.986Z,97978.88
2017-11-10T07:20:13.801Z,97982.30
2017-11-10T07:21:17.843Z,97965.23
2017-11-10T07:22:21.693Z,97934.38
2017-11-10T07:23:25.571Z,97970.05
2017-11-10T07:24:30.153Z,97956.14
2017-11-10T07:25:34.000Z,97963.43
2017-11-10T07:26:37.880Z,97979.39
2017-11-10T07:27:41.895Z,97951.11
2017-11-10T07:28:45.585Z,97962.28
2017-11-10T07:29:49.184Z,97964.95
2017-11-10T07:30:52.819Z,97975.32
2017-11-10T07:31:56.442Z,97967.05
2017-11-10T07:33:00.480Z,97951.11
2017-11-10T07:34:05.844Z,97974.08
2017-11-10T07:35:09.849Z,97965.00
2017-11-10T07:36:13.743Z,97977.97
2017-11-10T07:37:17.691Z,97958.02
2017-11-10T07:38:21.622Z,97949.25
2017-11-10T07:39:25.464Z,97974.11
2017-11-10T07:40:29.614Z,97979.34
2017-11-10T07:41:33.606Z,97973.27
2017-11-10T07:42:37.307Z,97965.13
2017-11-10T07:43:41.108Z,97859.27
2017-11-10T07:44:45.615Z,97947.45
2017-11-10T07:45:50.791Z,97965.39
2017-11-10T07:46:54.959Z,97966.30
2017-11-10T07:47:58.895Z,97965.45
2017-11-10T07:49:02.569Z,97976.58
2017-11-10T07:50:06.419Z,97876.86
2017-11-10T07:51:10.095Z,97971.92
2017-11-10T07:52:13.881Z,97969.75
2017-11-10T07:53:17.974Z,97943.77
2017-11-10T07:54:21.541Z,97969.45
2017-11-10T07:55:27.135Z,97982.44
2017-11-10T07:56:30.884Z,97975.91
2017-11-10T07:57:34.670Z,97971.56
2017-11-10T07:58:38.847Z,97979.38
2017-11-10T07:59:48.609Z,97969.78
2017-11-10T08:00:53.796Z,97970.66
2017-11-10T08:01:58.129Z,97941.40
2017-11-10T08:03:01.995Z,97963.67
2017-11-10T08:04:05.644Z,97965.36
2017-11-10T08:05:09.285Z,97969.28
2017-11-10T08:06:16.749Z,97955.27
2017-11-10T08:07:20.468Z,97960.37
2017-11-10T08:08:24.081Z,97961.50
2017-11-10T08:09:27.717Z,97954.74
2017-11-10T08:10:31.393Z,97940.03
2017-11-10T08:11:35.169Z,97975.29
2017-11-10T08:12:39.270Z,97952.29
2017-11-10T08:13:44.161Z,97933.63
2017-11-10T08:14:48.308Z,97948.38
2017-11-10T08:15:52.187Z,97958.30
2017-11-10T08:16:56.021Z,97939.76
2017-11-10T08:17:59.868Z,97902.30
2017-11-10T08:19:04.155Z,97941.38
2017-11-10T08:20:07.972Z,97889.42
2017-11-10T08:21:11.789Z,97938.32
2017-11-10T08:22:15.485Z,97938.81
2017-11-10T08:23:19.244Z,97916.62
2017-11-10T08:24:22.987Z,97909.33
2017-11-10T08:25:27.198Z,97937.52
2017-11-10T08:26:30.980Z,97885.48
2017-11-10T08:27:34.726Z,97915.08
2017-11-10T08:28:39.573Z,97927.67
2017-11-10T08:29:43.449Z,97911.17
2017-11-10T08:30:47.184Z,97918.93
2017-11-10T08:31:51.270Z,97907.73
2017-11-10T08:32:55.121Z,97912.97
2017-11-10T08:33:58.784Z,97915.02
2017-11-10T08:35:02.496Z,97915.98
2017-11-10T08:36:06.207Z,97910.00
2017-11-10T08:37:09.914Z,97914.77
2017-11-10T08:38:15.680Z,97890.75
2017-11-10T08:39:19.605Z,97906.72
2017-11-10T08:40:23.896Z,97849.84
2017-11-10T08:41:27.986Z,97861.31
2017-11-10T08:42:31.868Z,97878.27
2017-11-10T08:43:35.722Z,97886.95
2017-11-10T08:44:39.851Z,97860.39
2017-11-10T08:45:44.174Z,97899.02
2017-11-10T08:46:48.051Z,97879.98
2017-11-10T08:47:51.929Z,97886.83
2017-11-10T08:48:56.175Z,97864.41
2017-11-10T08:49:59.987Z,97839.73
2017-11-10T08:51:06.325Z,97860.09
2017-11-10T08:52:10.130Z,97857.93
2017-11-10T08:53:14.298Z,97865.34
2017-11-10T08:54:18.283Z,97856.30
2017-11-10T08:55:23.907Z,97832.92
2017-11-10T08:56:27.781Z,97858.45
2017-11-10T08:57:33.388Z,97812.52
2017-11-10T08:58:43.500Z,97849.84
2017-11-10T08:59:48.298Z,97847.67
2017-11-10T09:00:52.263Z,97854.64
2017-11-10T09:01:56.267Z,97845.14
2017-11-10T09:03:02.044Z,97848.13
2017-11-10T09:04:08.590Z,97847.69
2017-11-10T09:05:13.200Z,97847.68
2017-11-10T09:06:17.857Z,97777.47
2017-11-10T09:07:32.935Z,97835.53
2017-11-10T09:08:39.020Z,97835.95
2017-11-10T09:09:43.812Z,97816.49
2017-11-10T09:10:49.557Z,97797.80
2017-11-10T09:11:54.990Z,97838.66
2017-11-10T09:12:58.952Z,97810.92
2017-11-10T09:14:02.901Z,97812.65
2017-11-10T09:15:07.126Z,97817.88
2017-11-10T09:16:11.091Z,97773.69
2017-11-10T09:17:15.945Z,97802.31
2017-11-10T09:18:22.003Z,97817.10
2017-11-10T09:19:27.292Z,97813.59
2017-11-10T09:20:32.008Z,97823.61
2017-11-10T09:22:44.950Z,97797.50
2017-11-10T09:23:50.076Z,97823.49
2017-11-10T09:24:54.185Z,97789.33
2017-11-10T09:25:58.222Z,97806.20
2017-11-10T09:27:02.210Z,97823.11
2017-11-10T09:28:06.886Z,97812.28
2017-11-10T09:29:11.495Z,97794.49
2017-11-10T09:30:15.576Z,97818.76
2017-11-10T09:31:19.622Z,97783.63
2017-11-10T09:32:26.385Z,97805.37
2017-11-10T09:33:34.372Z,97778.03
2017-11-10T09:34:41.597Z,97800.02
2017-11-10T09:35:47.132Z,97821.70
2017-11-10T09:36:51.299Z,97780.08
2017-11-10T09:37:55.440Z,97808.73
2017-11-10T09:38:59.583Z,97802.19
2017-11-10T09:40:03.517Z,97789.66
2017-11-10T09:41:08.742Z,97807.54
2017-11-10T09:42:13.077Z,97817.50
2017-11-10T09:43:17.894Z,97787.16
2017-11-10T09:44:23.132Z,97801.00
2017-11-10T09:45:29.235Z,97809.69
2017-11-10T09:46:34.837Z,97780.22
2017-11-10T09:47:45.355Z,97812.22
2017-11-10T09:48:53.733Z,97808.36
2017-11-10T09:50:06.230Z,97810.91
2017-11-10T09:51:17.288Z,97826.45
2017-11-10T09:52:23.577Z,97796.58
2017-11-10T09:53:39.461Z,97813.50
2017-11-10T09:54:45.774Z,97803.60
2017-11-10T09:55:51.558Z,97816.45
2017-11-10T09:56:59.516Z,97804.34
2017-11-10T09:58:14.766Z,97813.42
2017-11-10T09:59:20.301Z,97796.97
2017-11-10T10:00:27.468Z,97757.52
2017-11-10T10:01:32.775Z,97804.36
2017-11-10T10:02:38.146Z,97810.88
2017-11-10T10:03:42.603Z,97804.03
2017-11-10T10:04:51.145Z,97800.98
2017-11-10T10:05:55.679Z,97805.25
2017-11-10T10:07:00.099Z,97782.73
2017-11-10T10:08:04.250Z,97802.65
2017-11-10T10:09:08.245Z,97799.61
2017-11-10T10:10:12.300Z,97704.33
2017-11-10T10:11:16.292Z,97808.27
2017-11-10T10:12:20.820Z,97749.81
2017-11-10T10:13:24.831Z,97763.74
2017-11-10T10:14:28.937Z,97789.27
2017-11-10T10:15:33.032Z,97750.66
2017-11-10T10:16:37.155Z,97809.12
2017-11-10T10:17:41.227Z,97796.56
2017-11-10T10:18:45.619Z,97777.11
2017-11-10T10:19:50.053Z,97787.09
2017-11-10T10:20:54.166Z,97777.14
2017-11-10T10:21:58.165Z,97774.53
2017-11-10T10:23:04.628Z,97745.06
2017-11-10T10:24:09.579Z,97753.69
2017-11-10T10:25:14.850Z,97774.48
2017-11-10T10:26:19.592Z,97740.75
2017-11-10T10:27:24.080Z,97754.17
2017-11-10T10:28:28.589Z,97767.16
2017-11-10T10:29:35.757Z,97729.95
2017-11-10T10:30:40.290Z,97666.31
2017-11-10T10:31:46.131Z,97745.55
2017-11-10T10:32:50.733Z,97775.00
2017-11-10T10:33:54.645Z,97746.39
2017-11-10T10:34:58.596Z,97757.25
2017-11-10T10:36:09.392Z,97734.75
2017-11-10T10:37:13.655Z,97736.05
2017-11-10T10:38:24.614Z,97717.38
2017-11-10T10:39:32.514Z,97728.30
2017-11-10T10:40:38.852Z,97740.78
2017-11-10T10:41:48.062Z,97749.03
2017-11-10T10:42:51.974Z,97708.34
2017-11-10T10:43:56.853Z,97745.17
2017-11-10T10:45:01.470Z,97733.08
2017-11-10T10:46:14.901Z,97729.59
2017-11-10T10:47:21.078Z,97734.81
2017-11-10T10:48:26.616Z,97727.06
2017-11-10T10:49:38.476Z,97723.60
2017-11-10T10:50:44.921Z,97726.23
2017-11-10T10:51:49.397Z,97714.55
2017-11-10T10:52:55.819Z,97709.76
2017-11-10T10:55:12.412Z,97713.20
2017-11-10T10:56:18.361Z,97703.23
2017-11-10T10:57:26.033Z,97720.57
2017-11-10T10:59:43.972Z,97708.02
2017-11-10T11:00:48.444Z,97718.41
2017-11-10T11:03:11.639Z,97707.58
2017-11-10T11:04:31.006Z,97714.92
2017-11-10T11:05:40.219Z,97685.09
2017-11-10T11:06:44.953Z,97688.08
2017-11-10T11:07:55.274Z,97682.44
2017-11-10T11:09:02.672Z,97698.87
2017-11-10T11:10:08.313Z,97676.84
2017-11-10T11:11:12.099Z,97667.31
2017-11-10T11:12:21.652Z,97682.91
2017-11-10T11:13:28.513Z,97613.64
2017-11-10T11:14:34.283Z,97619.28
2017-11-10T11:15:38.149Z,97688.10
2017-11-10T11:16:42.044Z,97681.20
2017-11-10T11:17:48.362Z,97643.06
2017-11-10T11:18:53.080Z,97685.09
2017-11-10T11:19:58.331Z,97660.41
2017-11-10T11:21:03.344Z,97690.70
2017-11-10T11:22:07.212Z,97680.77
2017-11-10T11:23:12.335Z,97670.83
2017-11-10T11:24:20.154Z,97705.41
2017-11-10T11:25:25.782Z,97674.28
2017-11-10T11:26:29.759Z,97675.58
2017-11-10T11:27:39.539Z,97692.42
2017-11-10T11:28:44.498Z,97667.34
2017-11-10T11:29:49.267Z,97662.15
2017-11-10T11:30:53.180Z,97670.78
2017-11-10T11:31:57.315Z,97654.35
2017-11-10T11:33:02.682Z,97669.06
2017-11-10T11:34:09.182Z,97657.80
2017-11-10T11:35:13.807Z,97666.05
2017-11-10T11:37:28.315Z,97653.06
2017-11-10T11:38:32.236Z,97649.16
2017-11-10T11:39:36.462Z,97627.95
2017-11-10T11:40:43.940Z,97612.40
2017-11-10T11:41:49.752Z,97646.16
2017-11-10T11:43:01.313Z,97593.36
2017-11-10T11:44:11.290Z,97641.39
2017-11-10T11:45:27.787Z,97576.48
2017-11-10T11:46:32.380Z,97635.77
2017-11-10T11:47:41.069Z,97526.74
2017-11-10T11:48:51.114Z,97639.22
2017-11-10T11:49:57.111Z,97652.64
2017-11-10T11:51:03.337Z,97594.21
2017-11-10T11:52:10.272Z,97631.42
2017-11-10T11:53:16.779Z,97619.73
2017-11-10T11:54:21.391Z,97622.77
2017-11-10T11:56:34.582Z,97619.75
2017-11-10T11:58:52.654Z,97613.25
2017-11-10T12:00:03.262Z,97620.61
2017-11-10T12:01:07.261Z,97573.02
2017-11-10T12:02:12.714Z,97620.17
2017-11-10T12:03:18.641Z,97614.55
2017-11-10T12:04:24.432Z,97611.52
2017-11-10T12:05:30.065Z,97612.84
2017-11-10T12:08:04.225Z,97598.09
2017-11-10T12:09:10.392Z,97599.82
2017-11-10T12:10:14.689Z,97592.03
2017-11-10T12:11:22.751Z,97581.23
2017-11-10T12:12:43.339Z,97582.95
2017-11-10T12:13:49.004Z,97598.12
2017-11-10T12:14:54.046Z,97612.38
2017-11-10T12:15:58.145Z,97585.57
2017-11-10T12:17:03.094Z,97594.66
2017-11-10T12:18:07.766Z,97574.73
2017-11-10T12:19:11.598Z,97575.17
2017-11-10T12:20:19.844Z,97580.36
2017-11-10T12:21:24.511Z,97578.19
2017-11-10T12:22:30.830Z,97579.02
2017-11-10T12:24:45.648Z,97563.02
2017-11-10T12:25:49.543Z,97556.10
2017-11-10T12:26:53.391Z,97566.51
2017-11-10T12:27:57.620Z,97595.94
2017-11-10T12:29:04.287Z,97556.52
2017-11-10T12:30:09.619Z,97487.80
2017-11-10T12:31:13.522Z,97479.16
2017-11-10T12:32:17.381Z,97553.05
2017-11-10T12:33:21.370Z,97557.36
2017-11-10T12:34:25.516Z,97569.91
2017-11-10T12:35:30.126Z,97525.76
2017-11-10T12:36:34.350Z,97544.83
2017-11-10T12:37:38.184Z,97554.73
2017-11-10T12:38:42.897Z,97420.78
2017-11-10T12:39:46.839Z,97531.85
2017-11-10T12:40:50.737Z,97529.66
2017-11-10T12:41:54.724Z,97524.06
2017-11-10T12:42:59.138Z,97528.41
2017-11-10T12:44:03.005Z,97522.34
2017-11-10T12:45:06.859Z,97495.54
2017-11-10T12:46:10.614Z,97514.48
2017-11-10T12:47:14.372Z,97520.11
2017-11-10T12:48:18.512Z,97527.41
2017-11-10T12:49:23.373Z,97528.28
2017-11-10T12:50:27.330Z,97523.50
2017-11-10T12:51:31.280Z,97524.41
2017-11-10T12:52:35.371Z,97503.72
2017-11-10T12:53:39.380Z,97524.84
2017-11-10T12:54:44.635Z,97474.73
2017-11-10T12:55:49.125Z,97493.73
2017-11-10T12:56:53.390Z,97511.83